createdAt,value
2023-04-18T00:00:55.614Z,15.11
2023-04-18T00:03:22.986Z,15.31
2023-04-18T00:05:51.951Z,15.18
2023-04-18T00:08:19.014Z,15.30
2023-04-18T00:10:46.393Z,15.35
2023-04-18T00:13:13.584Z,15.41
2023-04-18T00:15:40.984Z,15.20
2023-04-18T00:18:08.208Z,15.52
2023-04-18T00:20:35.510Z,15.62
2023-04-18T00:23:04.070Z,15.63
2023-04-18T00:25:31.447Z,15.71
2023-04-18T00:27:58.577Z,15.61
2023-04-18T00:30:25.754Z,15.70
2023-04-18T00:32:53.187Z,15.72
2023-04-18T00:35:20.335Z,15.68
2023-04-18T00:37:47.461Z,15.59
2023-04-18T00:40:16.635Z,15.35
2023-04-18T00:42:43.835Z,15.43
2023-04-18T00:45:11.614Z,15.29
2023-04-18T00:47:38.779Z,15.19
2023-04-18T00:50:08.193Z,15.19
2023-04-18T00:52:35.535Z,15.11
2023-04-18T00:55:03.490Z,15.10
2023-04-18T00:57:32.233Z,14.84
2023-04-18T01:00:01.128Z,14.89
2023-04-18T01:02:28.834Z,14.88
2023-04-18T01:04:56.585Z,14.96
2023-04-18T01:07:23.753Z,14.89
2023-04-18T01:09:51.575Z,14.84
2023-04-18T01:12:18.657Z,14.64
2023-04-18T01:14:47.315Z,14.61
2023-04-18T01:17:14.553Z,14.59
2023-04-18T01:19:41.655Z,14.59
2023-04-18T01:22:10.455Z,14.77
2023-04-18T01:24:39.575Z,14.86
2023-04-18T01:27:06.932Z,14.81
2023-04-18T01:29:34.034Z,14.91
2023-04-18T01:32:01.194Z,14.88
2023-04-18T01:34:28.416Z,14.93
2023-04-18T01:36:55.572Z,14.75
2023-04-18T01:39:22.732Z,14.71
2023-04-18T01:41:51.351Z,14.69
2023-04-18T01:44:18.436Z,14.86
2023-04-18T01:46:45.731Z,14.76
2023-04-18T01:49:13.064Z,14.75
2023-04-18T01:51:40.353Z,14.93
2023-04-18T01:54:07.462Z,16.27
2023-04-18T01:56:34.554Z,16.87
2023-04-18T01:59:03.112Z,16.96
2023-04-18T02:01:30.210Z,17.26
2023-04-18T02:03:57.393Z,17.38
2023-04-18T02:06:24.779Z,17.52
2023-04-18T02:08:51.911Z,17.89
2023-04-18T02:11:19.092Z,17.97
2023-04-18T02:13:46.192Z,18.28
2023-04-18T02:16:14.995Z,18.36
2023-04-18T02:18:43.857Z,18.45
2023-04-18T02:21:11.031Z,18.24
2023-04-18T02:23:38.284Z,18.30
2023-04-18T02:26:05.601Z,18.44
2023-04-18T02:28:33.026Z,18.65
2023-04-18T02:31:00.513Z,18.68
2023-04-18T02:33:29.152Z,18.75
2023-04-18T02:35:56.345Z,18.68
2023-04-18T02:38:23.471Z,18.84
2023-04-18T02:40:50.556Z,18.75
2023-04-18T02:43:17.716Z,18.84
2023-04-18T02:45:44.857Z,18.84
2023-04-18T02:48:11.958Z,18.80
2023-04-18T02:50:40.488Z,18.88
2023-04-18T02:53:07.542Z,18.79
2023-04-18T02:55:34.651Z,18.83
2023-04-18T02:58:01.795Z,18.76
2023-04-18T03:00:29.214Z,18.79
2023-04-18T03:02:56.450Z,18.88
2023-04-18T03:05:23.765Z,18.87
2023-04-18T03:07:52.564Z,18.75
2023-04-18T03:10:19.822Z,18.73
2023-04-18T03:12:46.955Z,18.67
2023-04-18T03:15:14.194Z,18.58
2023-04-18T03:17:42.062Z,18.56
2023-04-18T03:20:10.172Z,18.43
2023-04-18T03:22:37.231Z,18.42
2023-04-18T03:25:07.391Z,18.52
2023-04-18T03:27:34.573Z,18.54
2023-04-18T03:30:01.915Z,18.52
2023-04-18T03:32:29.113Z,18.53
2023-04-18T03:34:56.171Z,18.60
2023-04-18T03:37:23.271Z,18.56
2023-04-18T03:39:50.394Z,18.68
2023-04-18T03:42:18.918Z,18.70
2023-04-18T03:44:45.991Z,18.23
2023-04-18T03:47:13.209Z,18.22
2023-04-18T03:49:40.336Z,18.47
2023-04-18T03:52:07.454Z,18.26
2023-04-18T03:54:34.522Z,18.49
2023-04-18T03:57:01.641Z,18.55
2023-04-18T03:59:30.297Z,18.54
2023-04-18T04:01:57.409Z,18.59
2023-04-18T04:04:24.800Z,18.64
2023-04-18T04:06:52.376Z,18.63
2023-04-18T04:09:19.516Z,18.61
2023-04-18T04:11:46.595Z,18.63
2023-04-18T04:14:14.067Z,18.53
2023-04-18T04:16:43.010Z,18.56
2023-04-18T04:19:10.357Z,18.56
2023-04-18T04:21:37.376Z,18.57
2023-04-18T04:24:04.977Z,18.63
2023-04-18T04:26:32.137Z,18.54
2023-04-18T04:28:59.238Z,18.65
2023-04-18T04:31:26.474Z,18.64
2023-04-18T04:33:55.053Z,18.67
2023-04-18T04:36:23.249Z,18.54
2023-04-18T04:38:50.409Z,18.55
2023-04-18T04:41:17.616Z,18.54
2023-04-18T04:43:44.757Z,18.57
2023-04-18T04:46:12.010Z,18.42
2023-04-18T04:48:39.093Z,18.45
2023-04-18T04:51:07.629Z,18.57
2023-04-18T04:53:36.148Z,18.65
2023-04-18T04:56:03.353Z,18.62
2023-04-18T04:58:30.473Z,18.56
2023-04-18T05:00:57.709Z,18.53
2023-04-18T05:03:25.126Z,18.45
2023-04-18T05:05:52.491Z,18.41
2023-04-18T05:08:20.977Z,18.54
2023-04-18T05:10:48.052Z,18.53
2023-04-18T05:13:15.139Z,18.55
2023-04-18T05:15:42.291Z,18.54
2023-04-18T05:18:09.558Z,18.36
2023-04-18T05:20:36.848Z,18.50
2023-04-18T05:23:04.039Z,18.50
2023-04-18T05:25:32.892Z,18.49
2023-04-18T05:28:01.108Z,18.53
2023-04-18T05:30:28.236Z,18.51
2023-04-18T05:32:55.366Z,18.58
2023-04-18T05:35:22.532Z,18.46
2023-04-18T05:37:49.754Z,18.42
2023-04-18T05:40:16.854Z,18.49
2023-04-18T05:42:45.538Z,18.47
2023-04-18T05:45:12.715Z,18.54
2023-04-18T05:47:39.884Z,18.46
2023-04-18T05:50:08.536Z,18.57
2023-04-18T05:52:37.857Z,18.63
2023-04-18T05:55:05.597Z,18.56
2023-04-18T05:57:32.936Z,18.77
2023-04-18T06:00:01.864Z,19.22
2023-04-18T06:02:29.224Z,19.16
2023-04-18T06:04:56.709Z,19.34
2023-04-18T06:07:24.396Z,19.42
2023-04-18T06:09:51.683Z,19.60
2023-04-18T06:12:18.759Z,19.69
2023-04-18T06:14:45.855Z,19.77
2023-04-18T06:17:14.691Z,19.88
2023-04-18T06:19:41.898Z,19.83
2023-04-18T06:22:09.209Z,19.50
2023-04-18T06:24:36.337Z,19.37
2023-04-18T06:27:05.116Z,19.29
2023-04-18T06:29:33.973Z,19.29
2023-04-18T06:32:02.266Z,19.13
2023-04-18T06:34:30.955Z,19.09
2023-04-18T06:36:58.240Z,19.03
2023-04-18T06:39:25.423Z,18.92
2023-04-18T06:41:52.642Z,18.88
2023-04-18T06:44:19.954Z,18.87
2023-04-18T06:46:47.181Z,18.81
2023-04-18T06:49:14.417Z,18.85
2023-04-18T06:51:42.935Z,18.96
2023-04-18T06:54:10.114Z,18.82
2023-04-18T06:56:37.915Z,18.84
2023-04-18T06:59:05.109Z,18.77
2023-04-18T07:01:32.655Z,18.85
2023-04-18T07:03:59.984Z,18.88
2023-04-18T07:06:27.562Z,18.87
2023-04-18T07:08:56.156Z,18.91
2023-04-18T07:11:23.293Z,18.84
2023-04-18T07:13:50.480Z,18.95
2023-04-18T07:16:17.834Z,18.95
2023-04-18T07:18:45.004Z,18.97
2023-04-18T07:21:12.247Z,18.97
2023-04-18T07:23:39.441Z,18.95
2023-04-18T07:26:08.179Z,18.97
2023-04-18T07:28:35.403Z,19.02
2023-04-18T07:31:03.411Z,19.09
2023-04-18T07:33:30.641Z,19.13
2023-04-18T07:35:57.855Z,19.17
2023-04-18T07:38:25.122Z,19.24
2023-04-18T07:40:57.078Z,19.18
2023-04-18T07:43:26.126Z,19.32
2023-04-18T07:45:53.858Z,19.29
2023-04-18T07:48:21.655Z,19.38
2023-04-18T07:50:48.816Z,19.45
2023-04-18T07:53:16.131Z,20.03
2023-04-18T07:55:43.444Z,20.21
2023-04-18T07:58:10.812Z,20.35
2023-04-18T08:00:40.090Z,20.48
2023-04-18T08:03:07.568Z,20.88
2023-04-18T08:05:35.109Z,21.31
2023-04-18T08:08:02.451Z,20.92
2023-04-18T08:10:29.922Z,21.55
2023-04-18T08:12:57.057Z,21.75
2023-04-18T08:15:24.174Z,21.85
2023-04-18T08:17:52.814Z,22.04
2023-04-18T08:20:20.236Z,22.31
2023-04-18T08:23:04.826Z,22.19
2023-04-18T08:25:34.002Z,21.98
2023-04-18T08:28:01.130Z,22.62
2023-04-18T08:32:57.322Z,22.19
2023-04-18T08:35:24.855Z,22.50
2023-04-18T08:37:52.382Z,21.99
2023-04-18T08:40:20.005Z,22.27
2023-04-18T08:42:47.258Z,22.36
2023-04-18T08:45:14.539Z,21.92
2023-04-18T08:47:42.534Z,22.69
2023-04-18T08:50:11.667Z,22.92
2023-04-18T08:52:40.197Z,23.22
2023-04-18T08:55:08.998Z,23.12
2023-04-18T08:57:36.601Z,22.92
2023-04-18T09:00:04.738Z,23.25
2023-04-18T09:02:36.775Z,23.49
2023-04-18T09:05:13.419Z,23.34
2023-04-18T09:07:41.314Z,23.79
2023-04-18T09:10:10.083Z,23.40
2023-04-18T09:12:42.914Z,23.50
2023-04-18T09:15:12.734Z,23.69
2023-04-18T09:17:41.822Z,23.92
2023-04-18T09:20:11.055Z,23.89
2023-04-18T09:22:50.505Z,23.61
2023-04-18T09:25:26.010Z,23.80
2023-04-18T09:27:53.785Z,23.85
2023-04-18T09:30:34.313Z,23.79
2023-04-18T09:33:03.122Z,23.49
2023-04-18T09:35:30.485Z,23.70
2023-04-18T09:37:59.255Z,23.85
2023-04-18T09:40:26.495Z,24.16
2023-04-18T09:42:54.495Z,23.82
2023-04-18T09:45:22.855Z,23.34
2023-04-18T09:47:51.035Z,23.41
2023-04-18T09:50:18.994Z,23.73
2023-04-18T09:52:47.019Z,23.94
2023-04-18T09:55:17.607Z,23.71
2023-04-18T09:57:47.438Z,23.91
2023-04-18T10:00:24.595Z,24.05
2023-04-18T10:02:57.377Z,23.80
2023-04-18T10:05:26.969Z,23.21
2023-04-18T10:07:55.271Z,24.00
2023-04-18T10:10:24.927Z,24.22
2023-04-18T10:12:54.995Z,23.58
2023-04-18T10:15:25.482Z,24.02
2023-04-18T10:18:04.331Z,24.24
2023-04-18T10:20:35.263Z,23.44
2023-04-18T10:23:35.175Z,24.11
2023-04-18T10:26:04.631Z,23.95
2023-04-18T10:28:50.006Z,24.30
2023-04-18T10:31:17.547Z,24.27
2023-04-18T10:34:00.707Z,23.69
2023-04-18T10:36:31.651Z,23.92
2023-04-18T10:39:01.507Z,24.27
2023-04-18T10:41:31.973Z,24.22
2023-04-18T10:44:18.931Z,24.37
2023-04-18T10:47:20.507Z,24.23
2023-04-18T10:49:56.579Z,23.77
2023-04-18T10:52:23.955Z,24.02
2023-04-18T10:54:59.110Z,24.34
2023-04-18T10:57:38.401Z,23.90
2023-04-18T11:00:09.915Z,24.17
2023-04-18T11:02:37.789Z,24.11
2023-04-18T11:05:07.520Z,24.28
2023-04-18T11:07:36.297Z,23.87
2023-04-18T11:10:04.062Z,23.96
2023-04-18T11:12:34.658Z,24.48
2023-04-18T11:15:11.170Z,24.67
2023-04-18T11:17:39.902Z,23.81
2023-04-18T11:20:09.634Z,23.82
2023-04-18T11:22:45.694Z,23.92
2023-04-18T11:25:13.202Z,24.25
2023-04-18T11:27:43.296Z,24.68
2023-04-18T11:30:11.435Z,24.21
2023-04-18T11:32:38.726Z,24.56
2023-04-18T11:35:09.629Z,24.77
2023-04-18T11:37:37.600Z,24.57
2023-04-18T11:40:06.493Z,24.85
2023-04-18T11:42:34.887Z,24.94
2023-04-18T11:45:04.535Z,24.36
2023-04-18T11:47:34.831Z,24.60
2023-04-18T11:50:04.691Z,25.01
2023-04-18T11:52:33.731Z,24.74
2023-04-18T11:55:13.308Z,24.59
2023-04-18T11:57:41.130Z,24.78
2023-04-18T12:00:11.338Z,24.44
2023-04-18T12:02:41.829Z,24.61
2023-04-18T12:05:09.958Z,24.37
2023-04-18T12:07:39.227Z,23.07
2023-04-18T12:10:09.669Z,23.62
2023-04-18T12:12:37.288Z,22.89
2023-04-18T12:15:07.680Z,23.50
2023-04-18T12:17:36.933Z,24.09
2023-04-18T12:20:06.331Z,23.86
2023-04-18T12:22:41.762Z,23.95
2023-04-18T12:25:20.264Z,24.30
2023-04-18T12:27:51.859Z,24.06
2023-04-18T12:30:20.067Z,23.43
2023-04-18T12:32:50.723Z,23.55
2023-04-18T12:35:19.414Z,24.34
2023-04-18T12:37:47.551Z,24.34
2023-04-18T12:40:15.807Z,24.37
2023-04-18T12:42:43.314Z,23.69
2023-04-18T12:45:11.909Z,23.94
2023-04-18T12:47:40.303Z,23.98
2023-04-18T12:50:11.606Z,23.70
2023-04-18T12:52:40.695Z,23.99
2023-04-18T12:55:09.607Z,24.13
2023-04-18T12:57:36.988Z,23.24
2023-04-18T13:00:05.112Z,23.56
2023-04-18T13:02:32.457Z,23.64
2023-04-18T13:04:59.911Z,23.46
2023-04-18T13:07:28.678Z,23.11
2023-04-18T13:09:55.800Z,23.05
2023-04-18T13:12:22.936Z,23.05
2023-04-18T13:14:50.108Z,22.65
2023-04-18T13:17:17.724Z,23.08
2023-04-18T13:19:44.944Z,23.29
2023-04-18T13:22:12.253Z,23.72
2023-04-18T13:24:40.882Z,23.85
2023-04-18T13:27:08.343Z,23.57
2023-04-18T13:29:35.493Z,23.98
2023-04-18T13:32:02.780Z,24.44
2023-04-18T13:34:29.970Z,24.66
2023-04-18T13:36:58.975Z,24.81
2023-04-18T13:39:26.232Z,24.63
2023-04-18T13:41:54.921Z,24.56
2023-04-18T13:44:22.096Z,23.86
2023-04-18T13:46:49.187Z,23.42
2023-04-18T13:49:16.466Z,23.65
2023-04-18T13:51:43.713Z,23.87
2023-04-18T13:54:10.859Z,24.06
2023-04-18T13:56:38.080Z,24.30
2023-04-18T13:59:06.978Z,23.78
2023-04-18T14:01:34.278Z,22.97
2023-04-18T14:04:02.868Z,23.11
2023-04-18T14:06:30.236Z,22.90
2023-04-18T14:08:57.435Z,23.15
2023-04-18T14:11:24.719Z,23.18
2023-04-18T14:13:51.925Z,22.92
2023-04-18T14:16:20.843Z,23.15
2023-04-18T14:18:48.176Z,23.06
2023-04-18T14:21:15.340Z,23.09
2023-04-18T14:23:42.715Z,23.04
2023-04-18T14:26:10.777Z,23.08
2023-04-18T14:28:37.905Z,22.85
2023-04-18T14:31:05.118Z,23.01
2023-04-18T14:33:33.738Z,23.15
2023-04-18T14:36:01.977Z,23.25
2023-04-18T14:38:29.080Z,23.18
2023-04-18T14:40:57.418Z,23.00
2023-04-18T14:43:25.055Z,22.99
2023-04-18T14:45:52.264Z,23.30
2023-04-18T14:48:19.607Z,23.09
2023-04-18T14:50:56.317Z,23.02
2023-04-18T14:53:23.594Z,23.08
2023-04-18T14:55:51.175Z,22.98
2023-04-18T14:58:18.436Z,21.99
2023-04-18T15:00:45.575Z,22.57
2023-04-18T15:03:12.862Z,22.75
2023-04-18T15:05:40.055Z,22.94
2023-04-18T15:08:09.051Z,22.82
2023-04-18T15:10:36.274Z,22.87
2023-04-18T15:13:03.369Z,22.87
2023-04-18T15:15:30.682Z,22.69
2023-04-18T15:17:58.054Z,22.84
2023-04-18T15:20:25.278Z,22.62
2023-04-18T15:22:52.569Z,22.71
2023-04-18T15:25:21.388Z,22.56
2023-04-18T15:27:51.497Z,22.76
2023-04-18T15:30:19.087Z,22.99
2023-04-18T15:32:46.281Z,23.00
2023-04-18T15:35:13.620Z,23.09
2023-04-18T15:37:40.866Z,23.13
2023-04-18T15:40:09.390Z,22.74
2023-04-18T15:42:39.401Z,22.77
2023-04-18T15:45:07.642Z,22.75
2023-04-18T15:47:34.947Z,22.79
2023-04-18T15:50:02.282Z,22.61
2023-04-18T15:52:29.579Z,22.64
2023-04-18T15:54:57.963Z,22.61
2023-04-18T15:57:25.203Z,22.71
2023-04-18T15:59:53.932Z,22.72
2023-04-18T16:02:21.286Z,22.57
2023-04-18T16:04:48.664Z,22.53
2023-04-18T16:07:17.601Z,22.55
2023-04-18T16:09:44.864Z,22.16
2023-04-18T16:12:12.255Z,22.08
2023-04-18T16:14:39.897Z,22.06
2023-04-18T16:17:08.539Z,22.16
2023-04-18T16:19:36.308Z,22.19
2023-04-18T16:22:03.592Z,22.35
2023-04-18T16:24:30.756Z,21.64
2023-04-18T16:26:57.995Z,21.56
2023-04-18T16:29:25.272Z,20.88
2023-04-18T16:31:52.602Z,21.11
2023-04-18T16:34:21.362Z,21.36
2023-04-18T16:36:50.786Z,21.68
2023-04-18T16:39:18.484Z,21.73
2023-04-18T16:41:45.806Z,21.85
2023-04-18T16:44:13.354Z,21.47
2023-04-18T16:46:40.929Z,21.71
2023-04-18T16:49:08.525Z,21.78
2023-04-18T16:51:38.103Z,21.85
2023-04-18T16:54:06.058Z,21.42
2023-04-18T16:56:34.361Z,21.61
2023-04-18T16:59:01.490Z,21.55
2023-04-18T17:01:28.684Z,21.66
2023-04-18T17:03:56.143Z,21.62
2023-04-18T17:06:23.483Z,21.63
2023-04-18T17:08:52.163Z,21.30
2023-04-18T17:11:19.605Z,21.44
2023-04-18T17:13:47.001Z,21.70
2023-04-18T17:16:14.289Z,21.88
2023-04-18T17:18:41.566Z,22.03
2023-04-18T17:21:08.880Z,22.09
2023-04-18T17:23:36.361Z,21.98
2023-04-18T17:26:05.127Z,22.14
2023-04-18T17:28:32.293Z,22.12
2023-04-18T17:30:59.454Z,22.23
2023-04-18T17:33:26.599Z,22.32
2023-04-18T17:35:53.896Z,22.24
2023-04-18T17:38:21.181Z,22.23
2023-04-18T17:40:48.422Z,21.89
2023-04-18T17:43:17.133Z,21.86
2023-04-18T17:45:44.246Z,21.65
2023-04-18T17:48:11.562Z,21.62
2023-04-18T17:50:38.805Z,21.80
2023-04-18T17:53:06.047Z,21.82
2023-04-18T17:55:33.327Z,21.79
2023-04-18T17:58:00.768Z,21.43
2023-04-18T18:00:30.717Z,21.11
2023-04-18T18:02:58.116Z,21.20
2023-04-18T18:05:25.355Z,21.51
2023-04-18T18:07:52.700Z,21.47
2023-04-18T18:10:20.400Z,21.21
2023-04-18T18:12:47.815Z,21.34
2023-04-18T18:15:15.815Z,21.33
2023-04-18T18:17:44.538Z,21.14
2023-04-18T18:20:12.138Z,21.01
2023-04-18T18:22:39.280Z,21.11
2023-04-18T18:25:07.475Z,21.00
2023-04-18T18:27:34.770Z,20.92
2023-04-18T18:30:01.999Z,20.82
2023-04-18T18:32:29.199Z,20.83
2023-04-18T18:34:57.894Z,20.61
2023-04-18T18:37:25.197Z,20.25
2023-04-18T18:39:52.372Z,20.28
2023-04-18T18:42:19.574Z,20.35
2023-04-18T18:44:46.674Z,20.18
2023-04-18T18:47:14.173Z,19.98
2023-04-18T18:49:41.434Z,20.07
2023-04-18T18:52:10.032Z,19.99
2023-04-18T18:54:37.192Z,20.10
2023-04-18T18:57:04.462Z,20.11
2023-04-18T18:59:32.909Z,20.01
2023-04-18T19:02:00.411Z,19.89
2023-04-18T19:04:28.030Z,19.66
2023-04-18T19:06:55.372Z,19.58
2023-04-18T19:09:24.074Z,19.88
2023-04-18T19:11:51.134Z,19.75
2023-04-18T19:14:18.433Z,21.41
2023-04-18T19:16:47.055Z,22.07
2023-04-18T19:19:14.409Z,22.64
2023-04-18T19:21:41.753Z,22.99
2023-04-18T19:24:09.028Z,23.28
2023-04-18T19:26:38.018Z,23.40
2023-04-18T19:29:06.873Z,23.51
2023-04-18T19:31:34.239Z,23.68
2023-04-18T19:34:01.694Z,23.08
2023-04-18T19:36:34.956Z,22.41
2023-04-18T19:39:02.406Z,21.96
2023-04-18T19:41:29.614Z,21.17
2023-04-18T19:43:58.138Z,20.78
2023-04-18T19:46:25.739Z,20.75
2023-04-18T19:48:53.730Z,20.60
2023-04-18T19:51:21.298Z,20.44
2023-04-18T19:53:48.639Z,20.39
2023-04-18T19:56:15.880Z,20.27
2023-04-18T19:58:43.652Z,20.04
2023-04-18T20:01:12.744Z,19.78
2023-04-18T20:03:40.733Z,19.85
2023-04-18T20:06:08.750Z,19.88
2023-04-18T20:08:38.191Z,19.45
2023-04-18T20:11:07.993Z,19.24
2023-04-18T20:13:35.651Z,19.15
2023-04-18T20:16:02.951Z,19.14
2023-04-18T20:18:31.608Z,19.08
2023-04-18T20:20:58.766Z,18.89
2023-04-18T20:23:25.942Z,18.95
2023-04-18T20:25:53.072Z,18.95
2023-04-18T20:28:20.312Z,18.83
2023-04-18T20:30:47.469Z,19.11
2023-04-18T20:33:14.690Z,19.08
2023-04-18T20:35:43.789Z,19.19
2023-04-18T20:38:11.531Z,19.01
2023-04-18T20:40:39.048Z,19.14
2023-04-18T20:43:06.209Z,19.06
2023-04-18T20:45:33.830Z,19.19
2023-04-18T20:48:01.359Z,19.04
2023-04-18T20:50:28.651Z,19.19
2023-04-18T20:52:57.131Z,19.25
2023-04-18T20:55:24.310Z,19.17
2023-04-18T20:57:51.550Z,19.15
2023-04-18T21:00:19.050Z,19.12
2023-04-18T21:02:46.277Z,19.20
2023-04-18T21:05:13.531Z,18.99
2023-04-18T21:07:40.747Z,18.96
2023-04-18T21:10:10.311Z,19.12
2023-04-18T21:12:37.510Z,19.08
2023-04-18T21:15:05.584Z,18.95
2023-04-18T21:17:32.744Z,18.83
2023-04-18T21:19:59.916Z,18.84
2023-04-18T21:22:27.052Z,19.05
2023-04-18T21:24:54.196Z,18.77
2023-04-18T21:27:22.730Z,18.49
2023-04-18T21:29:49.808Z,18.82
2023-04-18T21:32:17.140Z,18.97
2023-04-18T21:34:44.294Z,19.06
2023-04-18T21:37:11.475Z,19.08
2023-04-18T21:39:38.703Z,19.17
2023-04-18T21:42:05.931Z,19.21
2023-04-18T21:44:34.574Z,19.29
2023-04-18T21:47:01.873Z,19.04
2023-04-18T21:49:28.932Z,19.11
2023-04-18T21:51:56.251Z,19.21
2023-04-18T21:54:23.413Z,19.21
2023-04-18T21:56:50.517Z,19.22
2023-04-18T21:59:17.734Z,19.15
2023-04-18T22:01:46.331Z,19.08
2023-04-18T22:04:13.806Z,19.13
2023-04-18T22:06:41.232Z,19.13
2023-04-18T22:09:08.392Z,19.10
2023-04-18T22:11:35.656Z,18.91
2023-04-18T22:14:02.815Z,18.88
2023-04-18T22:16:30.073Z,18.99
2023-04-18T22:18:59.207Z,18.94
2023-04-18T22:21:26.393Z,18.72
2023-04-18T22:23:53.522Z,18.60
2023-04-18T22:26:20.826Z,18.69
2023-04-18T22:28:47.997Z,18.63
2023-04-18T22:31:15.326Z,18.61
2023-04-18T22:33:42.490Z,18.59
2023-04-18T22:36:11.089Z,18.66
2023-04-18T22:38:38.232Z,18.66
2023-04-18T22:41:05.550Z,18.35
2023-04-18T22:43:33.130Z,18.51
2023-04-18T22:46:00.418Z,18.47
2023-04-18T22:48:27.650Z,18.51
2023-04-18T22:50:54.969Z,18.39
2023-04-18T22:53:23.583Z,18.43
2023-04-18T22:55:50.865Z,18.53
2023-04-18T22:58:17.978Z,18.42
2023-04-18T23:00:46.884Z,18.39
2023-04-18T23:03:14.128Z,18.34
2023-04-18T23:05:41.540Z,18.20
2023-04-18T23:08:08.671Z,18.45
2023-04-18T23:10:38.173Z,18.48
2023-04-18T23:13:05.282Z,18.55
2023-04-18T23:15:32.459Z,18.57
2023-04-18T23:17:59.861Z,18.55
2023-04-18T23:20:27.017Z,18.54
2023-04-18T23:22:54.165Z,18.60
2023-04-18T23:25:21.397Z,18.56
2023-04-18T23:27:49.991Z,18.55
2023-04-18T23:30:18.568Z,18.54
2023-04-18T23:32:45.717Z,18.52
2023-04-18T23:35:12.973Z,18.52
2023-04-18T23:37:40.114Z,18.48
2023-04-18T23:40:09.050Z,18.44
2023-04-18T23:42:37.233Z,18.40
2023-04-18T23:45:07.095Z,18.36
2023-04-18T23:47:34.247Z,18.40
2023-04-18T23:50:01.548Z,18.40
2023-04-18T23:52:28.689Z,18.36
2023-04-18T23:54:58.766Z,18.33
2023-04-18T23:57:25.991Z,18.29
2023-04-18T23:59:53.279Z,18.29
